Terminal Aerodrome Forecast
Issued by NWS Bismarck, ND

Home | Current Version | Previous Version | Graphics & Text | Print | Product List | Glossary On
Versions: 1 2 3 4 5 6 7 8 9 10 11 12 13 14 15 16 17 18 19 20 21 22 23 24 25 26 27
000
FTUS43 KBIS 032335
TAFISN
TAF
KISN 032335Z 0400/0424 22007KT 3SM -SN BR SCT015 OVC035
      TEMPO 0400/0402 1SM -SN BR SCT008 OVC015
     FM040200 27010KT P6SM OVC035
     FM040500 29011KT P6SM BKN015 OVC025
     FM041000 26008KT P6SM SCT090
     FM041500 21004KT P6SM BKN150
     FM042000 18007KT P6SM BKN150=

USA.gov is the U.S. government's official web portal to all federal, state and local government web resources and services.